sensor_id;sensor_type;location;lat;lon;timestamp;pressure;altitude;pressure_sealevel;temperature;humidity
72262;BME280;60173;52.112;8.648;2023-07-30T16:28:53;100088.16;;;24.17;62.49
72262;BME280;60173;52.112;8.648;2023-07-30T16:31:19;100087.38;;;23.48;64.69
72262;BME280;60173;52.112;8.648;2023-07-30T16:33:46;100088.13;;;23.13;65.65
72262;BME280;60173;52.112;8.648;2023-07-30T16:36:12;100069.88;;;23.01;66.36
72262;BME280;60173;52.112;8.648;2023-07-30T16:38:38;100085.72;;;23.08;66.04
72262;BME280;60173;52.112;8.648;2023-07-30T16:41:05;100081.75;;;23.01;66.51
72262;BME280;60173;52.112;8.648;2023-07-30T16:43:31;100080.19;;;23.00;66.10
72262;BME280;60173;52.112;8.648;2023-07-30T16:45:59;100088.13;;;23.09;65.76
72262;BME280;60173;52.112;8.648;2023-07-30T16:48:25;100077.78;;;22.95;66.09
72262;BME280;60173;52.112;8.648;2023-07-30T16:50:52;100092.75;;;22.91;66.44
72262;BME280;60173;52.112;8.648;2023-07-30T16:53:18;100090.78;;;22.88;66.39
72262;BME280;60173;52.112;8.648;2023-07-30T16:55:44;100098.28;;;22.87;65.10
72262;BME280;60173;52.112;8.648;2023-07-30T16:58:11;100091.19;;;22.86;66.46
72262;BME280;60173;52.112;8.648;2023-07-30T17:00:37;100089.97;;;22.84;66.76
72262;BME280;60173;52.112;8.648;2023-07-30T17:18:44;100105.38;;;22.77;66.31
72262;BME280;60173;52.112;8.648;2023-07-30T17:21:10;100100.66;;;23.90;100.00
72262;BME280;60173;52.112;8.648;2023-07-30T17:32:45;100099.69;;;23.97;50.92
72262;BME280;60173;52.112;8.648;2023-07-30T17:35:12;100106.34;;;23.21;53.19
72262;BME280;60173;52.112;8.648;2023-07-30T17:37:38;100119.88;;;21.94;56.55
72262;BME280;60173;52.112;8.648;2023-07-30T17:40:09;100119.88;;;21.12;59.29
72262;BME280;60173;52.112;8.648;2023-07-30T17:42:37;100119.59;;;20.87;60.20
72262;BME280;60173;52.112;8.648;2023-07-30T17:45:04;100116.16;;;20.37;61.86
72262;BME280;60173;52.112;8.648;2023-07-30T17:47:31;100122.13;;;20.16;62.29
72262;BME280;60173;52.112;8.648;2023-07-30T17:49:57;100116.31;;;20.21;62.38
72262;BME280;60173;52.112;8.648;2023-07-30T17:52:24;100120.81;;;20.06;62.96
72262;BME280;60173;52.112;8.648;2023-07-30T17:54:50;100116.69;;;19.93;63.51
72262;BME280;60173;52.112;8.648;2023-07-30T17:57:17;100126.81;;;20.12;63.12
72262;BME280;60173;52.112;8.648;2023-07-30T17:59:43;100133.16;;;20.16;62.98
72262;BME280;60173;52.112;8.648;2023-07-30T18:02:09;100131.59;;;20.15;63.04
72262;BME280;60173;52.112;8.648;2023-07-30T18:04:36;100134.88;;;19.75;64.10
72262;BME280;60173;52.112;8.648;2023-07-30T18:07:02;100133.69;;;19.53;64.76
72262;BME280;60173;52.112;8.648;2023-07-30T18:09:29;100131.53;;;19.42;64.83
72262;BME280;60173;52.112;8.648;2023-07-30T18:11:55;100130.69;;;19.38;65.77
72262;BME280;60173;52.112;8.648;2023-07-30T18:14:22;100134.09;;;19.55;65.00
72262;BME280;60173;52.112;8.648;2023-07-30T18:16:48;100137.63;;;19.32;65.35
72262;BME280;60173;52.112;8.648;2023-07-30T18:19:14;100135.53;;;19.26;66.06
72262;BME280;60173;52.112;8.648;2023-07-30T18:21:41;100135.69;;;19.13;66.11
72262;BME280;60173;52.112;8.648;2023-07-30T18:24:07;100130.69;;;19.19;66.01
72262;BME280;60173;52.112;8.648;2023-07-30T18:26:34;100134.97;;;19.16;66.32
72262;BME280;60173;52.112;8.648;2023-07-30T18:29:00;100128.81;;;19.23;65.62
72262;BME280;60173;52.112;8.648;2023-07-30T18:31:27;100132.56;;;19.15;66.36
72262;BME280;60173;52.112;8.648;2023-07-30T18:33:53;100140.25;;;19.06;66.21
72262;BME280;60173;52.112;8.648;2023-07-30T18:36:19;100146.06;;;19.01;66.43
72262;BME280;60173;52.112;8.648;2023-07-30T18:38:46;100149.81;;;19.12;66.34
72262;BME280;60173;52.112;8.648;2023-07-30T18:41:12;100142.53;;;18.81;67.56
72262;BME280;60173;52.112;8.648;2023-07-30T18:43:39;100147.03;;;18.73;68.87
72262;BME280;60173;52.112;8.648;2023-07-30T18:46:05;100138.88;;;18.77;68.40
72262;BME280;60173;52.112;8.648;2023-07-30T18:48:31;100138.22;;;18.83;67.80
72262;BME280;60173;52.112;8.648;2023-07-30T18:50:58;100145.56;;;18.95;66.91
72262;BME280;60173;52.112;8.648;2023-07-30T18:53:24;100138.78;;;18.73;67.75
72262;BME280;60173;52.112;8.648;2023-07-30T18:55:51;100144.28;;;18.73;67.84
72262;BME280;60173;52.112;8.648;2023-07-30T18:58:17;100130.09;;;18.71;67.63
72262;BME280;60173;52.112;8.648;2023-07-30T19:00:46;100139.00;;;18.64;68.93
72262;BME280;60173;52.112;8.648;2023-07-30T19:03:12;100136.13;;;18.41;68.56
72262;BME280;60173;52.112;8.648;2023-07-30T19:05:39;100136.59;;;18.43;68.81
72262;BME280;60173;52.112;8.648;2023-07-30T19:08:05;100133.91;;;18.31;68.46
72262;BME280;60173;52.112;8.648;2023-07-30T19:10:32;100140.31;;;18.35;68.96
72262;BME280;60173;52.112;8.648;2023-07-30T19:12:58;100144.06;;;18.27;69.92
72262;BME280;60173;52.112;8.648;2023-07-30T19:15:24;100145.25;;;18.45;69.42
72262;BME280;60173;52.112;8.648;2023-07-30T19:17:51;100143.34;;;18.30;69.67
72262;BME280;60173;52.112;8.648;2023-07-30T19:20:17;100145.38;;;18.33;69.83
72262;BME280;60173;52.112;8.648;2023-07-30T19:22:44;100153.69;;;18.37;69.37
72262;BME280;60173;52.112;8.648;2023-07-30T19:25:10;100155.94;;;18.15;71.12
72262;BME280;60173;52.112;8.648;2023-07-30T19:27:36;100145.31;;;18.14;70.78
72262;BME280;60173;52.112;8.648;2023-07-30T19:30:03;100138.66;;;18.15;70.93
72262;BME280;60173;52.112;8.648;2023-07-30T19:32:30;100141.06;;;18.00;71.84
72262;BME280;60173;52.112;8.648;2023-07-30T19:34:56;100142.84;;;18.09;70.81
72262;BME280;60173;52.112;8.648;2023-07-30T19:37:23;100145.63;;;18.28;70.36
72262;BME280;60173;52.112;8.648;2023-07-30T19:39:49;100130.91;;;18.36;70.78
72262;BME280;60173;52.112;8.648;2023-07-30T19:42:15;100146.34;;;18.25;71.87
72262;BME280;60173;52.112;8.648;2023-07-30T19:44:42;100147.25;;;18.29;72.93
72262;BME280;60173;52.112;8.648;2023-07-30T19:47:09;100146.00;;;18.26;72.72
72262;BME280;60173;52.112;8.648;2023-07-30T19:49:36;100145.75;;;18.16;73.96
72262;BME280;60173;52.112;8.648;2023-07-30T19:52:04;100148.06;;;17.98;75.87
72262;BME280;60173;52.112;8.648;2023-07-30T19:54:30;100143.63;;;17.93;75.11
72262;BME280;60173;52.112;8.648;2023-07-30T19:56:57;100145.25;;;17.94;75.39
72262;BME280;60173;52.112;8.648;2023-07-30T19:59:23;100140.81;;;17.90;75.50
72262;BME280;60173;52.112;8.648;2023-07-30T20:01:49;100134.88;;;17.88;75.43
72262;BME280;60173;52.112;8.648;2023-07-30T20:04:16;100132.81;;;17.84;75.57
72262;BME280;60173;52.112;8.648;2023-07-30T20:06:42;100136.75;;;17.83;75.97
72262;BME280;60173;52.112;8.648;2023-07-30T20:09:08;100136.09;;;17.90;75.88
72262;BME280;60173;52.112;8.648;2023-07-30T20:11:35;100132.22;;;17.91;75.58
72262;BME280;60173;52.112;8.648;2023-07-30T20:14:01;100130.44;;;17.99;75.92
72262;BME280;60173;52.112;8.648;2023-07-30T20:16:28;100126.91;;;17.82;76.45
72262;BME280;60173;52.112;8.648;2023-07-30T20:18:54;100123.88;;;17.88;76.79
72262;BME280;60173;52.112;8.648;2023-07-30T20:21:20;100125.81;;;17.87;77.39
72262;BME280;60173;52.112;8.648;2023-07-30T20:23:47;100127.44;;;17.88;76.99
72262;BME280;60173;52.112;8.648;2023-07-30T20:26:14;100127.34;;;17.84;76.65
72262;BME280;60173;52.112;8.648;2023-07-30T20:28:42;100126.69;;;17.75;77.45
72262;BME280;60173;52.112;8.648;2023-07-30T20:31:09;100128.88;;;17.82;77.83
72262;BME280;60173;52.112;8.648;2023-07-30T20:33:35;100132.94;;;17.88;77.76
72262;BME280;60173;52.112;8.648;2023-07-30T20:36:02;100126.59;;;17.72;77.92
72262;BME280;60173;52.112;8.648;2023-07-30T20:38:29;100125.38;;;17.53;78.71
72262;BME280;60173;52.112;8.648;2023-07-30T20:40:58;100129.94;;;17.49;77.77
72262;BME280;60173;52.112;8.648;2023-07-30T20:43:25;100125.53;;;17.45;77.84
72262;BME280;60173;52.112;8.648;2023-07-30T20:45:51;100126.13;;;17.38;76.81
72262;BME280;60173;52.112;8.648;2023-07-30T20:48:18;100118.34;;;17.56;75.93
72262;BME280;60173;52.112;8.648;2023-07-30T20:50:44;100118.88;;;17.61;74.83
72262;BME280;60173;52.112;8.648;2023-07-30T20:53:11;100126.50;;;17.52;74.11
72262;BME280;60173;52.112;8.648;2023-07-30T20:55:37;100124.13;;;17.51;73.42
72262;BME280;60173;52.112;8.648;2023-07-30T20:58:04;100123.50;;;17.57;73.21
72262;BME280;60173;52.112;8.648;2023-07-30T21:00:30;100132.25;;;17.47;74.04
72262;BME280;60173;52.112;8.648;2023-07-30T21:02:57;100139.34;;;17.04;77.83
72262;BME280;60173;52.112;8.648;2023-07-30T21:05:23;100146.31;;;17.02;79.76
72262;BME280;60173;52.112;8.648;2023-07-30T21:07:49;100156.66;;;16.68;83.25
72262;BME280;60173;52.112;8.648;2023-07-30T21:10:16;100162.97;;;16.81;85.30
72262;BME280;60173;52.112;8.648;2023-07-30T21:12:42;100169.78;;;16.75;87.03
72262;BME280;60173;52.112;8.648;2023-07-30T21:15:09;100171.88;;;16.65;89.07
72262;BME280;60173;52.112;8.648;2023-07-30T21:17:37;100171.16;;;16.68;89.45
72262;BME280;60173;52.112;8.648;2023-07-30T21:20:04;100166.44;;;16.41;90.83
72262;BME280;60173;52.112;8.648;2023-07-30T21:22:30;100166.88;;;16.31;91.51
72262;BME280;60173;52.112;8.648;2023-07-30T21:24:57;100168.13;;;16.45;92.29
72262;BME280;60173;52.112;8.648;2023-07-30T21:27:23;100163.91;;;16.36;92.95
72262;BME280;60173;52.112;8.648;2023-07-30T21:29:49;100163.22;;;16.39;93.15
72262;BME280;60173;52.112;8.648;2023-07-30T21:32:16;100164.38;;;16.25;93.11
72262;BME280;60173;52.112;8.648;2023-07-30T21:34:42;100166.66;;;16.23;94.11
72262;BME280;60173;52.112;8.648;2023-07-30T21:37:09;100161.06;;;16.08;94.66
72262;BME280;60173;52.112;8.648;2023-07-30T21:39:35;100167.59;;;16.15;94.43
72262;BME280;60173;52.112;8.648;2023-07-30T21:42:02;100168.50;;;16.07;94.88
72262;BME280;60173;52.112;8.648;2023-07-30T21:44:28;100161.75;;;15.92;95.99
72262;BME280;60173;52.112;8.648;2023-07-30T21:46:55;100163.44;;;15.85;97.05
72262;BME280;60173;52.112;8.648;2023-07-30T21:49:21;100160.75;;;15.97;96.64
72262;BME280;60173;52.112;8.648;2023-07-30T21:51:48;100154.09;;;15.98;96.36
72262;BME280;60173;52.112;8.648;2023-07-30T21:54:14;100163.47;;;15.97;96.50
72262;BME280;60173;52.112;8.648;2023-07-30T21:56:40;100146.81;;;16.14;95.90
72262;BME280;60173;52.112;8.648;2023-07-30T21:59:07;100143.63;;;16.12;95.81
72262;BME280;60173;52.112;8.648;2023-07-30T22:01:33;100143.03;;;15.94;96.53
72262;BME280;60173;52.112;8.648;2023-07-30T22:04:00;100131.03;;;16.11;96.30
72262;BME280;60173;52.112;8.648;2023-07-30T22:06:26;100129.44;;;16.10;96.19
72262;BME280;60173;52.112;8.648;2023-07-30T22:08:53;100131.50;;;15.89;97.27
72262;BME280;60173;52.112;8.648;2023-07-30T22:11:19;100129.09;;;15.75;98.33
72262;BME280;60173;52.112;8.648;2023-07-30T22:13:45;100105.03;;;15.68;99.56
72262;BME280;60173;52.112;8.648;2023-07-30T22:16:12;100096.47;;;15.70;99.88
72262;BME280;60173;52.112;8.648;2023-07-30T22:18:38;100080.81;;;15.58;100.00
72262;BME280;60173;52.112;8.648;2023-07-30T22:21:05;100078.41;;;15.56;100.00
72262;BME280;60173;52.112;8.648;2023-07-30T22:23:31;100082.97;;;15.52;100.00
72262;BME280;60173;52.112;8.648;2023-07-30T22:25:58;100074.16;;;15.59;100.00
72262;BME280;60173;52.112;8.648;2023-07-30T22:28:24;100081.00;;;15.41;100.00
72262;BME280;60173;52.112;8.648;2023-07-30T22:30:51;100077.13;;;15.42;100.00
72262;BME280;60173;52.112;8.648;2023-07-30T22:33:18;100076.22;;;15.37;100.00
72262;BME280;60173;52.112;8.648;2023-07-30T22:35:44;100075.88;;;15.39;100.00
72262;BME280;60173;52.112;8.648;2023-07-30T22:38:10;100070.31;;;15.48;100.00
72262;BME280;60173;52.112;8.648;2023-07-30T22:40:37;100068.00;;;15.50;100.00
72262;BME280;60173;52.112;8.648;2023-07-30T22:43:04;100069.53;;;15.59;100.00
72262;BME280;60173;52.112;8.648;2023-07-30T22:45:31;100058.69;;;15.51;100.00
72262;BME280;60173;52.112;8.648;2023-07-30T22:47:57;100063.09;;;15.31;100.00
72262;BME280;60173;52.112;8.648;2023-07-30T22:50:24;100053.41;;;15.33;100.00
72262;BME280;60173;52.112;8.648;2023-07-30T22:52:50;100051.38;;;15.30;100.00
72262;BME280;60173;52.112;8.648;2023-07-30T22:55:16;100059.69;;;15.46;100.00
72262;BME280;60173;52.112;8.648;2023-07-30T22:57:43;100056.47;;;15.32;100.00
72262;BME280;60173;52.112;8.648;2023-07-30T23:00:10;100067.78;;;15.43;100.00
72262;BME280;60173;52.112;8.648;2023-07-30T23:02:36;100070.97;;;15.45;100.00
72262;BME280;60173;52.112;8.648;2023-07-30T23:05:03;100069.84;;;15.58;100.00
72262;BME280;60173;52.112;8.648;2023-07-30T23:07:29;100061.22;;;15.68;100.00
72262;BME280;60173;52.112;8.648;2023-07-30T23:09:56;100066.59;;;15.77;100.00
72262;BME280;60173;52.112;8.648;2023-07-30T23:12:22;100071.50;;;15.84;100.00
72262;BME280;60173;52.112;8.648;2023-07-30T23:14:48;100074.00;;;15.89;100.00
72262;BME280;60173;52.112;8.648;2023-07-30T23:17:15;100067.16;;;15.82;100.00
72262;BME280;60173;52.112;8.648;2023-07-30T23:19:41;100063.75;;;15.86;100.00
72262;BME280;60173;52.112;8.648;2023-07-30T23:22:08;100050.38;;;15.96;100.00
72262;BME280;60173;52.112;8.648;2023-07-30T23:24:34;100053.22;;;16.00;100.00
72262;BME280;60173;52.112;8.648;2023-07-30T23:27:00;100035.06;;;16.08;100.00
72262;BME280;60173;52.112;8.648;2023-07-30T23:29:27;100032.56;;;15.90;100.00
72262;BME280;60173;52.112;8.648;2023-07-30T23:31:53;100026.97;;;15.99;100.00
72262;BME280;60173;52.112;8.648;2023-07-30T23:34:20;100030.63;;;16.03;100.00
72262;BME280;60173;52.112;8.648;2023-07-30T23:36:46;100026.53;;;15.97;100.00
72262;BME280;60173;52.112;8.648;2023-07-30T23:39:13;100020.59;;;15.95;100.00
72262;BME280;60173;52.112;8.648;2023-07-30T23:41:39;100014.44;;;15.86;100.00
72262;BME280;60173;52.112;8.648;2023-07-30T23:44:06;100008.72;;;15.91;100.00
72262;BME280;60173;52.112;8.648;2023-07-30T23:46:32;100013.06;;;15.92;100.00
72262;BME280;60173;52.112;8.648;2023-07-30T23:48:58;100007.00;;;15.98;100.00
72262;BME280;60173;52.112;8.648;2023-07-30T23:51:25;100005.41;;;15.85;100.00
72262;BME280;60173;52.112;8.648;2023-07-30T23:53:51;100002.81;;;15.89;100.00
72262;BME280;60173;52.112;8.648;2023-07-30T23:56:18;100006.81;;;15.91;100.00
72262;BME280;60173;52.112;8.648;2023-07-30T23:58:44;99992.41;;;15.82;100.00
